Time;durP1;ratioP1;P1;durP2;ratioP2;P2;SDS_P1;SDS_P2;PMS_P1;PMS_P2;Temp;Humidity;BMP_temperature;BMP_pressure;BME280_temperature;BME280_humidity;BME280_pressure;Samples;Min_cycle;Max_cycle;Signal;HPM_P1;HPM_P2
2021/06/06 00:01:39;;;;;;;10.40;7.40;;;;;;;;;;5059575;28;20047;-59
2021/06/06 00:04:18;;;;;;;12.43;7.28;;;;;;;;;;5065291;28;20040;-59
2021/06/06 00:07:05;;;;;;;8.75;7.43;;;;;;;;;;5061308;28;20127;-58
2021/06/06 00:09:32;;;;;;;10.73;7.10;;;;;;;;;;5061691;28;20033;-58
2021/06/06 00:11:59;;;;;;;10.85;6.85;;;;;;;;;;5060688;28;20576;-58
2021/06/06 00:14:27;;;;;;;9.25;7.57;;;;;;;;;;5055627;28;20048;-58
2021/06/06 00:16:57;;;;;;;11.50;6.57;;;;;;;;;;5060836;28;20037;-58
2021/06/06 00:19:24;;;;;;;12.88;6.90;;;;;;;;;;5065265;28;20598;-58
2021/06/06 00:21:53;;;;;;;8.38;7.07;;;;;;;;;;5058074;28;20044;-59
2021/06/06 00:24:22;;;;;;;10.27;6.85;;;;;;;;;;5057005;28;20033;-58
2021/06/06 00:26:50;;;;;;;10.88;6.97;;;;;;;;;;5062606;28;20128;-59
2021/06/06 00:29:17;;;;;;;;;;;;;;;;;;5063138;28;20632;-58
2021/06/06 00:31:45;;;;;;;14.30;7.25;;;;;;;;;;5065334;28;19966;-59
2021/06/06 00:34:13;;;;;;;11.50;7.80;;;;;;;;;;5060485;28;20068;-58
2021/06/06 00:36:40;;;;;;;11.75;7.47;;;;;;;;;;5061594;28;20041;-58
2021/06/06 00:39:10;;;;;;;13.25;7.50;;;;;;;;;;5060025;28;20067;-59
2021/06/06 00:41:41;;;;;;;9.95;7.63;;;;;;;;;;5065243;28;20083;-58
2021/06/06 00:44:11;;;;;;;11.82;7.72;;;;;;;;;;5063420;28;20040;-58
2021/06/06 00:46:38;;;;;;;11.32;7.60;;;;;;;;;;5062200;28;20051;-58
2021/06/06 00:49:06;;;;;;;10.20;8.13;;;;;;;;;;5059018;28;20124;-58
2021/06/06 00:51:47;;;;;;;14.75;8.68;;;;;;;;;;5059339;28;20067;-59
2021/06/06 00:54:22;;;;;;;11.98;7.50;;;;;;;;;;5064057;28;20140;-58
2021/06/06 00:56:53;;;;;;;12.38;8.00;;;;;;;;;;5062387;28;20045;-59
2021/06/06 00:59:22;;;;;;;9.90;7.85;;;;;;;;;;5063341;28;20052;-61
2021/06/06 01:01:50;;;;;;;12.70;9.32;;;;;;;;;;5058859;28;20508;-59
2021/06/06 01:04:17;;;;;;;16.75;9.40;;;;;;;;;;5060740;28;20044;-58
2021/06/06 01:06:49;;;;;;;14.07;8.45;;;;;;;;;;5063051;28;20550;-58
2021/06/06 01:09:18;;;;;;;13.45;9.23;;;;;;;;;;5066937;28;20508;-59
2021/06/06 01:11:58;;;;;;;13.63;8.90;;;;;;;;;;5065741;28;20073;-59
2021/06/06 01:14:44;;;;;;;10.63;8.32;;;;;;;;;;5062566;28;20508;-59
2021/06/06 01:17:26;;;;;;;12.25;8.50;;;;;;;;;;5066132;28;20131;-59
2021/06/06 01:19:58;;;;;;;13.38;8.95;;;;;;;;;;5066944;28;20435;-59
2021/06/06 01:22:32;;;;;;;12.15;8.50;;;;;;;;;;5063478;28;20198;-59
2021/06/06 01:25:17;;;;;;;14.63;8.20;;;;;;;;;;5065765;28;20504;-59
2021/06/06 01:27:50;;;;;;;11.48;8.32;;;;;;;;;;5067678;28;20048;-59
2021/06/06 01:30:22;;;;;;;15.77;8.95;;;;;;;;;;5069477;28;20048;-59
2021/06/06 01:33:10;;;;;;;11.80;8.35;;;;;;;;;;5062030;28;20114;-59
2021/06/06 01:35:42;;;;;;;12.23;8.57;;;;;;;;;;5064186;28;20486;-59
2021/06/06 01:38:14;;;;;;;9.60;8.45;;;;;;;;;;5063214;28;20047;-59
2021/06/06 01:40:44;;;;;;;11.85;8.02;;;;;;;;;;5064110;28;20064;-59
2021/06/06 01:43:14;;;;;;;11.45;7.82;;;;;;;;;;5066442;28;20124;-59
2021/06/06 01:45:47;;;;;;;13.38;8.13;;;;;;;;;;5067076;28;20068;-59
2021/06/06 01:48:15;;;;;;;12.60;8.48;;;;;;;;;;5063786;28;20131;-59
2021/06/06 01:50:55;;;;;;;10.82;8.57;;;;;;;;;;5061699;28;20036;-58
2021/06/06 01:53:23;;;;;;;12.10;9.05;;;;;;;;;;5065097;28;20113;-59
2021/06/06 01:55:53;;;;;;;9.68;8.68;;;;;;;;;;5068588;28;20032;-58
2021/06/06 01:58:21;;;;;;;11.70;9.00;;;;;;;;;;5071061;28;20099;-58
2021/06/06 02:00:57;;;;;;;12.07;8.25;;;;;;;;;;5065997;28;20033;-59
2021/06/06 02:03:30;;;;;;;12.70;9.10;;;;;;;;;;5068870;28;20099;-59
2021/06/06 02:06:04;;;;;;;17.73;8.75;;;;;;;;;;5065633;28;20114;-59
2021/06/06 02:08:33;;;;;;;10.95;9.23;;;;;;;;;;5064515;28;20064;-59
2021/06/06 02:11:07;;;;;;;13.85;9.55;;;;;;;;;;5070655;28;20094;-59
2021/06/06 02:13:50;;;;;;;11.20;8.48;;;;;;;;;;5066222;28;20040;-59
2021/06/06 02:16:30;;;;;;;10.88;9.77;;;;;;;;;;5071230;28;20052;-59
2021/06/06 02:19:04;;;;;;;12.98;10.05;;;;;;;;;;5064711;28;20076;-59
2021/06/06 02:21:34;;;;;;;14.35;9.80;;;;;;;;;;5068929;28;20036;-59
2021/06/06 02:24:02;;;;;;;15.73;10.43;;;;;;;;;;5064940;28;20040;-59
2021/06/06 02:26:29;;;;;;;;;;;;;;;;;;5066502;28;20047;-59
2021/06/06 02:29:11;;;;;;;15.35;9.98;;;;;;;;;;5064594;28;19920;-59
2021/06/06 02:32:00;;;;;;;16.20;9.88;;;;;;;;;;5061265;28;20055;-58
2021/06/06 02:34:30;;;;;;;11.85;8.82;;;;;;;;;;5058302;28;20050;-59
2021/06/06 02:37:04;;;;;;;16.27;9.60;;;;;;;;;;5061033;28;20036;-58
2021/06/06 02:39:37;;;;;;;10.85;9.15;;;;;;;;;;5064350;28;20154;-59
2021/06/06 02:42:11;;;;;;;11.50;8.63;;;;;;;;;;5081489;28;20048;-59
2021/06/06 02:44:44;;;;;;;14.13;9.82;;;;;;;;;;5080339;28;20045;-59
2021/06/06 02:47:17;;;;;;;12.90;9.98;;;;;;;;;;5066267;28;20072;-59
2021/06/06 02:49:50;;;;;;;11.00;9.25;;;;;;;;;;5066595;28;20044;-59
2021/06/06 02:52:38;;;;;;;13.50;9.82;;;;;;;;;;5075553;28;20127;-58
2021/06/06 02:55:17;;;;;;;11.38;9.73;;;;;;;;;;5057928;28;20045;-58
2021/06/06 02:57:49;;;;;;;15.35;9.32;;;;;;;;;;5059270;28;20051;-58
2021/06/06 03:00:42;;;;;;;10.95;9.30;;;;;;;;;;5064683;28;20180;-59
2021/06/06 03:03:11;;;;;;;14.98;9.73;;;;;;;;;;5064608;28;20045;-59
2021/06/06 03:05:40;;;;;;;13.35;10.75;;;;;;;;;;5064458;28;20057;-59
2021/06/06 03:08:11;;;;;;;14.52;10.23;;;;;;;;;;5063834;28;20029;-59
2021/06/06 03:10:42;;;;;;;14.25;10.45;;;;;;;;;;5061963;28;20048;-58
2021/06/06 03:13:18;;;;;;;14.30;9.40;;;;;;;;;;5062641;28;20032;-59
2021/06/06 03:15:50;;;;;;;17.05;10.85;;;;;;;;;;5065493;28;20266;-59
2021/06/06 03:18:20;;;;;;;12.43;9.63;;;;;;;;;;5063649;28;20427;-59
2021/06/06 03:20:52;;;;;;;13.20;9.80;;;;;;;;;;5051379;28;20494;-58
2021/06/06 03:23:25;;;;;;;16.17;9.45;;;;;;;;;;5063316;28;20040;-59
2021/06/06 03:25:59;;;;;;;11.38;9.30;;;;;;;;;;5061495;28;20488;-59
2021/06/06 03:28:32;;;;;;;11.55;9.35;;;;;;;;;;5066320;28;20521;-59
2021/06/06 03:31:04;;;;;;;15.73;10.45;;;;;;;;;;5062913;28;20495;-58
2021/06/06 03:33:44;;;;;;;11.93;10.52;;;;;;;;;;5065527;28;20048;-59
2021/06/06 03:36:17;;;;;;;13.35;10.32;;;;;;;;;;5063361;28;20076;-59
2021/06/06 03:38:47;;;;;;;16.23;9.82;;;;;;;;;;5060559;28;20037;-59
2021/06/06 03:41:15;;;;;;;15.48;8.70;;;;;;;;;;5063792;28;20037;-59
2021/06/06 03:43:48;;;;;;;10.80;8.13;;;;;;;;;;5061696;28;20415;-59
2021/06/06 03:46:19;;;;;;;13.00;9.50;;;;;;;;;;5063329;28;20060;-58
2021/06/06 03:48:48;;;;;;;14.25;9.15;;;;;;;;;;5062289;28;20056;-58
2021/06/06 03:51:16;;;;;;;12.55;9.90;;;;;;;;;;5065367;28;20040;-58
2021/06/06 03:53:43;;;;;;;10.82;8.50;;;;;;;;;;5059710;28;20056;-59
2021/06/06 03:56:11;;;;;;;11.60;9.30;;;;;;;;;;5066099;28;20055;-59
2021/06/06 03:58:40;;;;;;;14.48;9.60;;;;;;;;;;5059730;28;20527;-58
2021/06/06 04:01:08;;;;;;;15.07;9.60;;;;;;;;;;5062870;28;20063;-59
2021/06/06 04:03:35;;;;;;;11.43;9.77;;;;;;;;;;5062227;28;20041;-59
2021/06/06 04:06:03;;;;;;;14.80;9.90;;;;;;;;;;5060603;28;20566;-59
2021/06/06 04:08:35;;;;;;;13.02;9.65;;;;;;;;;;5057213;28;20048;-58
2021/06/06 04:11:06;;;;;;;12.27;9.80;;;;;;;;;;5063639;28;20160;-58
2021/06/06 04:13:36;;;;;;;10.98;8.73;;;;;;;;;;5059790;28;20131;-58
2021/06/06 04:16:05;;;;;;;9.60;8.65;;;;;;;;;;5061611;28;20508;-58
2021/06/06 04:18:34;;;;;;;11.57;8.93;;;;;;;;;;5062985;28;20400;-59
2021/06/06 04:21:04;;;;;;;10.23;9.23;;;;;;;;;;5062953;28;20041;-58
2021/06/06 04:23:31;;;;;;;12.45;8.73;;;;;;;;;;5059913;28;20044;-59
2021/06/06 04:25:59;;;;;;;15.05;8.23;;;;;;;;;;5062328;28;20125;-59
2021/06/06 04:28:28;;;;;;;9.52;7.90;;;;;;;;;;5081906;28;20048;-59
2021/06/06 04:31:03;;;;;;;14.70;7.57;;;;;;;;;;5063356;28;20037;-59
2021/06/06 04:33:32;;;;;;;13.20;7.45;;;;;;;;;;5061011;28;20056;-59
2021/06/06 04:36:02;;;;;;;12.27;8.35;;;;;;;;;;5060891;28;20040;-59
2021/06/06 04:38:30;;;;;;;9.98;7.40;;;;;;;;;;5061992;28;20041;-59
2021/06/06 04:41:01;;;;;;;10.85;7.90;;;;;;;;;;5057386;28;20037;-59
2021/06/06 04:43:28;;;;;;;12.90;8.40;;;;;;;;;;5057628;28;20040;-59
2021/06/06 04:45:57;;;;;;;9.13;8.00;;;;;;;;;;5060173;28;20131;-59
2021/06/06 04:48:29;;;;;;;12.35;7.85;;;;;;;;;;5063017;28;20082;-59
2021/06/06 04:50:58;;;;;;;9.57;7.95;;;;;;;;;;5069195;28;20090;-59
2021/06/06 04:53:28;;;;;;;13.30;7.88;;;;;;;;;;5065297;28;20491;-59
2021/06/06 04:55:58;;;;;;;9.55;8.10;;;;;;;;;;5066713;28;20148;-58
2021/06/06 04:58:29;;;;;;;13.98;8.43;;;;;;;;;;5060391;28;20106;-59
2021/06/06 05:00:57;;;;;;;15.23;8.52;;;;;;;;;;5069815;28;20075;-59
2021/06/06 05:03:24;;;;;;;10.45;8.13;;;;;;;;;;5064520;28;20049;-58
2021/06/06 05:05:53;;;;;;;11.80;8.10;;;;;;;;;;5061052;28;20135;-59
2021/06/06 05:08:21;;;;;;;12.52;8.32;;;;;;;;;;5065338;28;20098;-59
2021/06/06 05:10:49;;;;;;;12.38;8.27;;;;;;;;;;5068371;28;20563;-59
2021/06/06 05:13:18;;;;;;;11.02;7.43;;;;;;;;;;5065840;28;20064;-59
2021/06/06 05:15:47;;;;;;;12.65;7.47;;;;;;;;;;5062726;28;20055;-59
2021/06/06 05:18:15;;;;;;;14.10;7.80;;;;;;;;;;5080736;28;20524;-59
2021/06/06 05:20:44;;;;;;;10.02;7.80;;;;;;;;;;5064011;28;20087;-57
2021/06/06 05:23:21;;;;;;;11.38;8.00;;;;;;;;;;5063019;28;20127;-58
2021/06/06 05:25:49;;;;;;;20.00;7.10;;;;;;;;;;5068321;28;20048;-59
2021/06/06 05:28:19;;;;;;;14.33;7.33;;;;;;;;;;5063953;28;20048;-58
2021/06/06 05:30:47;;;;;;;12.82;7.57;;;;;;;;;;5065761;28;20171;-59
2021/06/06 05:33:14;;;;;;;9.43;7.00;;;;;;;;;;5063187;28;20075;-59
2021/06/06 05:35:41;;;;;;;;;;;;;;;;;;5067749;28;20635;-59
2021/06/06 05:38:08;;;;;;;9.25;6.72;;;;;;;;;;5062752;28;19936;-59
2021/06/06 05:40:36;;;;;;;10.60;6.97;;;;;;;;;;5065267;28;20052;-59
2021/06/06 05:43:06;;;;;;;12.20;6.82;;;;;;;;;;5064062;28;20056;-59
2021/06/06 05:45:34;;;;;;;11.50;6.88;;;;;;;;;;5067242;28;20036;-59
2021/06/06 05:48:02;;;;;;;8.85;7.35;;;;;;;;;;5062532;28;20094;-59
2021/06/06 05:50:31;;;;;;;11.65;7.00;;;;;;;;;;5063457;28;20050;-59
2021/06/06 05:53:22;;;;;;;12.85;6.90;;;;;;;;;;5060158;28;20090;-59
2021/06/06 05:55:53;;;;;;;14.18;7.30;;;;;;;;;;5063269;28;20049;-59
2021/06/06 05:58:19;;;;;;;10.00;6.50;;;;;;;;;;5062873;28;20094;-59
2021/06/06 06:00:47;;;;;;;8.85;6.43;;;;;;;;;;5066872;28;20098;-58
2021/06/06 06:03:17;;;;;;;10.25;6.95;;;;;;;;;;5062474;28;20094;-59
2021/06/06 06:05:44;;;;;;;12.05;7.35;;;;;;;;;;5063303;28;20044;-58
2021/06/06 06:08:12;;;;;;;10.68;6.68;;;;;;;;;;5062881;28;20306;-59
2021/06/06 06:10:39;;;;;;;6.32;5.70;;;;;;;;;;5063684;28;20040;-58
2021/06/06 06:13:06;;;;;;;6.40;5.72;;;;;;;;;;5068609;28;20045;-58
2021/06/06 06:15:33;;;;;;;7.55;5.80;;;;;;;;;;5065480;28;20055;-59
2021/06/06 06:18:01;;;;;;;7.88;5.40;;;;;;;;;;5063332;28;20439;-59
2021/06/06 06:20:28;;;;;;;10.85;6.25;;;;;;;;;;5065820;28;20542;-59
2021/06/06 06:22:55;;;;;;;8.77;5.35;;;;;;;;;;5061385;28;20064;-56
2021/06/06 06:25:22;;;;;;;10.23;5.53;;;;;;;;;;5060564;28;20049;-59
2021/06/06 06:27:49;;;;;;;7.38;5.38;;;;;;;;;;5061816;28;20037;-59
2021/06/06 06:30:37;;;;;;;14.20;5.30;;;;;;;;;;5062937;28;20048;-59
2021/06/06 06:33:06;;;;;;;8.55;5.03;;;;;;;;;;5061797;28;20076;-58
2021/06/06 06:35:33;;;;;;;;;;;;;;;;;;5066083;28;20572;-59
2021/06/06 06:38:03;;;;;;;8.30;4.80;;;;;;;;;;5064386;28;19929;-59
2021/06/06 06:40:30;;;;;;;10.02;4.45;;;;;;;;;;5063326;28;20044;-60
2021/06/06 06:42:57;;;;;;;11.10;4.72;;;;;;;;;;5066245;28;20045;-59
2021/06/06 06:45:30;;;;;;;6.97;4.85;;;;;;;;;;5066605;28;20048;-59
2021/06/06 06:47:58;;;;;;;5.80;4.65;;;;;;;;;;5067745;28;20052;-59
2021/06/06 06:50:26;;;;;;;5.97;4.90;;;;;;;;;;5069835;28;20130;-58
2021/06/06 06:52:53;;;;;;;8.10;4.88;;;;;;;;;;5064638;28;20056;-59
2021/06/06 06:55:20;;;;;;;8.97;5.40;;;;;;;;;;5066308;28;20052;-59
2021/06/06 06:57:48;;;;;;;9.20;4.47;;;;;;;;;;5062854;28;20408;-59
2021/06/06 07:00:17;;;;;;;7.78;4.78;;;;;;;;;;5063072;28;20514;-59
2021/06/06 07:02:59;;;;;;;6.78;4.53;;;;;;;;;;5058650;28;20033;-58
2021/06/06 07:05:26;;;;;;;8.02;4.25;;;;;;;;;;5065464;28;20052;-58
2021/06/06 07:07:53;;;;;;;6.72;4.60;;;;;;;;;;5061036;28;20040;-59
2021/06/06 07:10:21;;;;;;;6.40;4.43;;;;;;;;;;5062086;28;20071;-59
2021/06/06 07:12:50;;;;;;;7.57;3.90;;;;;;;;;;5062033;28;20032;-59
2021/06/06 07:15:17;;;;;;;6.57;3.95;;;;;;;;;;5061643;28;20104;-59
2021/06/06 07:17:45;;;;;;;6.57;4.05;;;;;;;;;;5059615;28;20044;-59
2021/06/06 07:20:13;;;;;;;7.28;4.32;;;;;;;;;;5061619;28;20505;-59
2021/06/06 07:22:40;;;;;;;5.18;4.13;;;;;;;;;;5060873;28;20039;-59
2021/06/06 07:25:08;;;;;;;9.63;3.88;;;;;;;;;;5067063;28;20047;-59
2021/06/06 07:27:38;;;;;;;13.30;4.00;;;;;;;;;;5060740;28;20041;-59
2021/06/06 07:30:07;;;;;;;8.75;4.53;;;;;;;;;;5059073;28;20037;-60
2021/06/06 07:32:34;;;;;;;4.68;3.90;;;;;;;;;;5060875;28;20407;-59
2021/06/06 07:35:02;;;;;;;7.47;3.88;;;;;;;;;;5068386;28;20089;-59
2021/06/06 07:37:32;;;;;;;8.15;3.90;;;;;;;;;;5064922;28;20051;-59
2021/06/06 07:39:59;;;;;;;4.38;3.70;;;;;;;;;;5066534;28;20060;-59
2021/06/06 07:42:26;;;;;;;5.82;3.60;;;;;;;;;;5067794;28;20527;-59
2021/06/06 07:44:54;;;;;;;8.65;3.80;;;;;;;;;;5063229;28;20041;-59
2021/06/06 07:47:21;;;;;;;6.00;4.00;;;;;;;;;;5062853;28;20057;-59
2021/06/06 07:49:48;;;;;;;4.65;3.53;;;;;;;;;;5064693;28;20047;-59
2021/06/06 07:52:17;;;;;;;6.90;3.65;;;;;;;;;;5063556;28;20040;-59
2021/06/06 07:54:45;;;;;;;5.78;3.80;;;;;;;;;;5069303;28;20059;-59
2021/06/06 07:57:14;;;;;;;5.70;3.60;;;;;;;;;;5062626;28;20044;-59
2021/06/06 07:59:42;;;;;;;9.82;3.72;;;;;;;;;;5063444;28;20528;-59
2021/06/06 08:02:08;;;;;;;10.75;3.85;;;;;;;;;;5065330;28;20067;-59
2021/06/06 08:04:36;;;;;;;7.25;3.60;;;;;;;;;;5061326;28;20037;-59
2021/06/06 08:07:03;;;;;;;9.93;3.83;;;;;;;;;;5064895;28;20048;-60
2021/06/06 08:09:30;;;;;;;7.67;3.70;;;;;;;;;;5063664;28;20131;-59
2021/06/06 08:11:57;;;;;;;;;;;;;;;;;;5061205;28;20337;-59
2021/06/06 08:14:27;;;;;;;5.47;3.47;;;;;;;;;;5061272;28;19944;-59
2021/06/06 08:16:54;;;;;;;7.80;3.65;;;;;;;;;;5063774;28;20036;-59
2021/06/06 08:19:21;;;;;;;8.18;3.95;;;;;;;;;;5066461;28;20055;-59
2021/06/06 08:21:49;;;;;;;6.13;3.83;;;;;;;;;;5063333;28;20056;-59
2021/06/06 08:24:16;;;;;;;5.72;3.80;;;;;;;;;;5063155;28;20255;-60
2021/06/06 08:26:43;;;;;;;9.85;3.97;;;;;;;;;;5064255;28;20485;-59
2021/06/06 08:29:11;;;;;;;6.60;3.75;;;;;;;;;;5063322;28;20063;-59
2021/06/06 08:31:39;;;;;;;4.95;3.70;;;;;;;;;;5063185;28;20033;-60
2021/06/06 08:34:07;;;;;;;7.43;3.53;;;;;;;;;;5061433;28;20049;-60
2021/06/06 08:36:37;;;;;;;9.40;3.85;;;;;;;;;;5058946;28;20144;-60
2021/06/06 08:39:09;;;;;;;5.50;3.17;;;;;;;;;;5064356;28;20098;-59
2021/06/06 08:41:46;;;;;;;6.82;3.55;;;;;;;;;;5066982;28;20044;-59
2021/06/06 08:44:17;;;;;;;7.90;3.67;;;;;;;;;;5062269;28;20048;-59
2021/06/06 08:46:57;;;;;;;6.68;3.17;;;;;;;;;;5064129;28;20592;-60
2021/06/06 08:49:27;;;;;;;4.93;3.30;;;;;;;;;;5064577;28;20452;-59
2021/06/06 08:52:14;;;;;;;7.13;3.28;;;;;;;;;;5061762;28;20483;-60
2021/06/06 08:54:49;;;;;;;7.38;3.30;;;;;;;;;;5058356;28;20134;-59
2021/06/06 08:57:20;;;;;;;5.75;3.50;;;;;;;;;;5060543;28;20033;-59
2021/06/06 08:59:52;;;;;;;10.15;3.80;;;;;;;;;;5063919;28;20087;-60
2021/06/06 09:02:27;;;;;;;4.20;3.10;;;;;;;;;;5063453;28;20076;-60
2021/06/06 09:04:54;;;;;;;4.38;3.22;;;;;;;;;;5067831;28;20048;-60
2021/06/06 09:07:28;;;;;;;8.85;3.67;;;;;;;;;;5064313;28;20037;-59
2021/06/06 09:09:57;;;;;;;8.60;3.50;;;;;;;;;;5061724;28;20040;-60
2021/06/06 09:12:26;;;;;;;5.90;3.03;;;;;;;;;;5064122;28;20087;-60
2021/06/06 09:14:54;;;;;;;8.23;3.50;;;;;;;;;;5059373;28;20094;-59
2021/06/06 09:17:39;;;;;;;7.43;3.00;;;;;;;;;;5059056;28;20072;-59
2021/06/06 09:20:25;;;;;;;9.98;3.50;;;;;;;;;;5060689;28;20041;-59
2021/06/06 09:23:02;;;;;;;3.63;3.00;;;;;;;;;;5061517;28;20407;-60
2021/06/06 09:25:34;;;;;;;11.80;3.50;;;;;;;;;;5065733;28;20052;-59
2021/06/06 09:28:02;;;;;;;3.97;3.28;;;;;;;;;;5064050;28;20039;-59
2021/06/06 09:30:29;;;;;;;5.07;3.05;;;;;;;;;;5064347;28;20039;-59
2021/06/06 09:33:12;;;;;;;7.05;2.88;;;;;;;;;;5062531;28;20053;-60
2021/06/06 09:35:59;;;;;;;9.38;3.40;;;;;;;;;;5067195;28;20390;-59
2021/06/06 09:38:29;;;;;;;3.50;2.88;;;;;;;;;;5067768;28;20075;-60
2021/06/06 09:40:56;;;;;;;11.63;3.10;;;;;;;;;;5068805;28;20131;-60
2021/06/06 09:43:23;;;;;;;;;;;;;;;;;;5071816;28;20063;-60
2021/06/06 09:45:50;;;;;;;4.93;3.00;;;;;;;;;;5069145;28;19921;-59
2021/06/06 09:48:27;;;;;;;7.13;3.35;;;;;;;;;;5067593;28;20569;-60
2021/06/06 09:51:35;;;;;;;8.55;3.28;;;;;;;;;;5066065;28;20044;-59
2021/06/06 09:54:12;;;;;;;8.23;3.67;;;;;;;;;;5058521;28;20102;-60
2021/06/06 09:56:40;;;;;;;6.07;3.53;;;;;;;;;;5067017;28;20041;-59
2021/06/06 09:59:09;;;;;;;8.60;3.05;;;;;;;;;;5065923;28;20403;-59
2021/06/06 10:01:37;;;;;;;7.38;3.45;;;;;;;;;;5068997;28;20049;-60
2021/06/06 10:04:16;;;;;;;6.57;3.65;;;;;;;;;;5066224;28;20047;-60
2021/06/06 10:06:44;;;;;;;4.28;3.05;;;;;;;;;;5062142;28;20546;-59
2021/06/06 10:09:18;;;;;;;5.88;3.20;;;;;;;;;;5066023;28;20443;-60
2021/06/06 10:12:03;;;;;;;6.82;3.40;;;;;;;;;;5061753;28;20479;-60
2021/06/06 10:14:34;;;;;;;8.75;3.42;;;;;;;;;;5066975;28;20446;-60
2021/06/06 10:17:03;;;;;;;5.15;3.00;;;;;;;;;;5066827;28;20428;-60
2021/06/06 10:19:48;;;;;;;6.95;3.13;;;;;;;;;;5064579;28;20048;-60
2021/06/06 10:22:20;;;;;;;4.47;3.50;;;;;;;;;;5061681;28;20123;-60
2021/06/06 10:25:09;;;;;;;4.78;3.30;;;;;;;;;;5064046;28;20060;-60
2021/06/06 10:27:39;;;;;;;5.88;3.22;;;;;;;;;;5065165;28;20140;-60
2021/06/06 10:30:08;;;;;;;6.95;3.50;;;;;;;;;;5068440;28;20036;-59
2021/06/06 10:32:44;;;;;;;9.63;3.17;;;;;;;;;;5064377;28;20145;-60
2021/06/06 10:35:14;;;;;;;11.10;3.30;;;;;;;;;;5063294;28;20099;-59
2021/06/06 10:37:41;;;;;;;6.07;3.03;;;;;;;;;;5065585;28;20401;-60
2021/06/06 10:40:13;;;;;;;7.35;3.30;;;;;;;;;;5064042;28;20092;-59
2021/06/06 10:42:48;;;;;;;8.02;3.20;;;;;;;;;;5061543;28;20060;-59
2021/06/06 10:45:27;;;;;;;6.22;3.10;;;;;;;;;;5067087;28;20072;-59
2021/06/06 10:48:00;;;;;;;6.57;3.25;;;;;;;;;;5081203;28;20270;-59
2021/06/06 10:50:37;;;;;;;5.03;2.72;;;;;;;;;;5062427;28;20047;-60
2021/06/06 10:53:21;;;;;;;8.27;2.97;;;;;;;;;;5061268;28;20511;-60
2021/06/06 10:56:06;;;;;;;5.25;2.78;;;;;;;;;;5064505;28;20045;-60
2021/06/06 10:58:36;;;;;;;5.03;2.70;;;;;;;;;;5066777;28;20115;-60
2021/06/06 11:01:23;;;;;;;6.55;2.78;;;;;;;;;;5065152;28;20044;-60
2021/06/06 11:03:54;;;;;;;4.97;2.80;;;;;;;;;;5066036;28;20044;-60
2021/06/06 11:06:31;;;;;;;8.25;3.15;;;;;;;;;;5062025;28;20040;-60
2021/06/06 11:08:59;;;;;;;4.10;2.80;;;;;;;;;;5068233;28;20075;-60
2021/06/06 11:11:25;;;;;;;;;;;;;;;;;;5069891;28;20587;-60
2021/06/06 11:13:52;;;;;;;5.82;2.92;;;;;;;;;;5064384;28;19924;-60
2021/06/06 11:16:23;;;;;;;7.13;2.85;;;;;;;;;;5069509;28;20048;-59
2021/06/06 11:18:54;;;;;;;4.55;2.70;;;;;;;;;;5065917;28;20683;-60
2021/06/06 11:21:34;;;;;;;3.92;2.75;;;;;;;;;;5063345;28;20101;-60
2021/06/06 11:24:04;;;;;;;8.10;2.70;;;;;;;;;;5063589;28;20041;-60
2021/06/06 11:26:41;;;;;;;10.93;3.20;;;;;;;;;;5062509;28;20570;-60
2021/06/06 11:29:20;;;;;;;3.80;2.80;;;;;;;;;;5065401;28;20045;-60
2021/06/06 11:32:02;;;;;;;3.67;2.20;;;;;;;;;;5064711;28;20505;-60
2021/06/06 11:34:31;;;;;;;5.75;2.45;;;;;;;;;;5060716;28;20051;-60
2021/06/06 11:37:08;;;;;;;4.95;2.55;;;;;;;;;;5064768;28;20109;-59
2021/06/06 11:39:41;;;;;;;4.32;2.53;;;;;;;;;;5062990;28;20056;-60
2021/06/06 11:42:23;;;;;;;3.33;2.20;;;;;;;;;;5064950;28;20048;-60
2021/06/06 11:44:58;;;;;;;5.90;2.40;;;;;;;;;;5064769;28;20036;-60
2021/06/06 11:47:28;;;;;;;7.50;2.80;;;;;;;;;;5064368;28;20135;-59
2021/06/06 11:50:07;;;;;;;3.55;2.40;;;;;;;;;;5059929;28;20477;-60
2021/06/06 11:52:36;;;;;;;3.38;2.55;;;;;;;;;;5059683;28;20524;-60
2021/06/06 11:55:03;;;;;;;7.20;2.25;;;;;;;;;;5058078;28;20037;-59
2021/06/06 11:57:32;;;;;;;5.20;2.60;;;;;;;;;;5064775;28;20060;-60
2021/06/06 12:00:10;;;;;;;7.97;2.78;;;;;;;;;;5063705;28;20317;-60
2021/06/06 12:02:38;;;;;;;6.55;2.50;;;;;;;;;;5061057;28;20052;-60
2021/06/06 12:05:38;;;;;;;10.43;2.78;;;;;;;;;;5058344;28;20033;-60
2021/06/06 12:08:08;;;;;;;9.10;2.65;;;;;;;;;;5048213;28;20041;-59
2021/06/06 12:10:37;;;;;;;4.20;1.98;;;;;;;;;;5060661;28;20079;-60
2021/06/06 12:13:05;;;;;;;5.38;1.95;;;;;;;;;;5061362;28;20658;-60
2021/06/06 12:15:39;;;;;;;2.85;2.20;;;;;;;;;;5058705;28;20057;-59
2021/06/06 12:18:08;;;;;;;5.20;2.53;;;;;;;;;;5029452;28;20057;-59
2021/06/06 12:20:47;;;;;;;5.13;2.20;;;;;;;;;;5002713;28;20041;-59
2021/06/06 12:23:14;;;;;;;4.03;1.95;;;;;;;;;;5004855;28;20042;-59
2021/06/06 12:25:40;;;;;;;6.20;1.92;;;;;;;;;;5005665;28;20050;-60
2021/06/06 12:28:15;;;;;;;4.68;2.03;;;;;;;;;;5007617;28;20045;-59
2021/06/06 12:30:46;;;;;;;5.43;2.47;;;;;;;;;;4998151;28;20042;-59
2021/06/06 12:33:16;;;;;;;2.92;2.42;;;;;;;;;;5004926;28;20123;-60
2021/06/06 12:35:47;;;;;;;5.07;2.10;;;;;;;;;;5000598;28;20061;-59
2021/06/06 12:38:15;;;;;;;2.70;2.20;;;;;;;;;;5000321;28;20280;-59
2021/06/06 12:40:42;;;;;;;4.63;2.40;;;;;;;;;;5000623;28;20101;-60
2021/06/06 12:43:12;;;;;;;4.72;2.40;;;;;;;;;;4997999;28;20030;-60
2021/06/06 12:45:43;;;;;;;4.88;2.50;;;;;;;;;;4997279;28;20502;-60
2021/06/06 12:48:10;;;;;;;8.13;2.47;;;;;;;;;;5004071;28;20073;-59
2021/06/06 12:50:38;;;;;;;3.08;2.30;;;;;;;;;;5001138;28;20041;-59
2021/06/06 12:53:18;;;;;;;4.95;2.15;;;;;;;;;;5004125;28;20051;-60
2021/06/06 12:55:47;;;;;;;3.15;2.20;;;;;;;;;;4997986;28;20042;-60
2021/06/06 12:58:13;;;;;;;4.85;2.22;;;;;;;;;;5003287;28;20038;-59
2021/06/06 13:00:41;;;;;;;3.05;2.10;;;;;;;;;;5004631;28;20046;-60
2021/06/06 13:03:27;;;;;;;3.00;2.33;;;;;;;;;;5004618;28;20430;-60
2021/06/06 13:05:55;;;;;;;2.55;1.92;;;;;;;;;;4996932;28;20046;-60
2021/06/06 13:08:27;;;;;;;2.97;2.10;;;;;;;;;;5007958;28;20042;-59
2021/06/06 13:10:56;;;;;;;3.92;2.30;;;;;;;;;;5005005;28;20046;-60
2021/06/06 13:13:46;;;;;;;7.57;2.20;;;;;;;;;;4999607;28;20540;-59
2021/06/06 13:16:34;;;;;;;3.13;1.85;;;;;;;;;;4998452;28;20156;-59
2021/06/06 13:19:09;;;;;;;3.10;2.08;;;;;;;;;;4998737;28;20425;-60
2021/06/06 13:21:38;;;;;;;3.95;2.13;;;;;;;;;;5006885;28;20053;-60
2021/06/06 13:24:07;;;;;;;5.45;2.30;;;;;;;;;;5007048;28;20422;-60
2021/06/06 13:26:36;;;;;;;2.20;2.00;;;;;;;;;;5001959;28;20054;-60
2021/06/06 13:29:04;;;;;;;9.80;2.70;;;;;;;;;;5002815;28;20489;-60
2021/06/06 13:31:39;;;;;;;3.05;2.50;;;;;;;;;;5005678;28;20100;-60
2021/06/06 13:34:08;;;;;;;2.88;2.45;;;;;;;;;;5007627;28;20128;-60
2021/06/06 13:36:36;;;;;;;5.95;2.53;;;;;;;;;;5001778;28;20038;-60
2021/06/06 13:39:17;;;;;;;6.75;2.47;;;;;;;;;;5007000;28;20440;-60
2021/06/06 13:41:43;;;;;;;5.18;2.33;;;;;;;;;;5001579;28;20505;-60
2021/06/06 13:44:10;;;;;;;7.68;2.30;;;;;;;;;;5006162;28;20490;-60
2021/06/06 13:46:37;;;;;;;4.13;2.15;;;;;;;;;;5006314;28;20074;-60
2021/06/06 13:49:04;;;;;;;4.18;2.17;;;;;;;;;;5008141;28;20509;-60
2021/06/06 13:51:31;;;;;;;5.65;2.30;;;;;;;;;;5008745;28;20117;-60
2021/06/06 13:53:58;;;;;;;4.00;2.38;;;;;;;;;;5005711;28;20038;-60
2021/06/06 13:56:25;;;;;;;7.53;2.30;;;;;;;;;;5001949;28;20497;-60
2021/06/06 13:58:52;;;;;;;4.55;2.20;;;;;;;;;;5008056;28;20129;-60
2021/06/06 14:01:20;;;;;;;6.75;2.03;;;;;;;;;;5003651;28;20478;-60
2021/06/06 14:03:46;;;;;;;3.67;2.10;;;;;;;;;;5004057;28;20044;-60
2021/06/06 14:06:14;;;;;;;4.53;2.10;;;;;;;;;;5004357;28;20050;-59
2021/06/06 14:08:41;;;;;;;4.78;2.10;;;;;;;;;;5012349;28;20042;-59
2021/06/06 14:11:12;;;;;;;4.65;2.20;;;;;;;;;;5005803;28;20091;-60
2021/06/06 14:13:39;;;;;;;2.65;2.20;;;;;;;;;;4999909;28;20041;-60
2021/06/06 14:16:08;;;;;;;3.42;2.50;;;;;;;;;;5005454;28;20050;-60
2021/06/06 14:18:35;;;;;;;5.22;2.72;;;;;;;;;;5005149;28;20092;-60
2021/06/06 14:21:02;;;;;;;9.65;2.70;;;;;;;;;;5007825;28;20049;-59
2021/06/06 14:23:29;;;;;;;7.28;2.40;;;;;;;;;;5008972;28;20049;-60
2021/06/06 14:26:16;;;;;;;5.10;2.55;;;;;;;;;;5010758;28;20060;-60
2021/06/06 14:28:43;;;;;;;8.48;2.75;;;;;;;;;;5005061;28;20038;-59
2021/06/06 14:31:10;;;;;;;;;;;;;;;;;;5005208;28;20042;-60
2021/06/06 14:33:37;;;;;;;3.38;2.40;;;;;;;;;;5000640;28;19925;-60
2021/06/06 14:36:05;;;;;;;5.15;2.58;;;;;;;;;;5004997;28;20054;-60
2021/06/06 14:38:32;;;;;;;6.55;2.92;;;;;;;;;;5008682;28;20042;-59
2021/06/06 14:41:01;;;;;;;6.13;2.47;;;;;;;;;;5006510;28;20037;-59
2021/06/06 14:43:28;;;;;;;9.45;2.90;;;;;;;;;;5003891;28;20049;-59
2021/06/06 14:45:55;;;;;;;5.93;2.80;;;;;;;;;;5003370;28;20569;-60
2021/06/06 14:48:24;;;;;;;3.63;2.47;;;;;;;;;;5005066;28;20073;-59
2021/06/06 14:50:51;;;;;;;4.20;2.78;;;;;;;;;;5001512;28;20105;-60
2021/06/06 14:53:19;;;;;;;6.03;2.80;;;;;;;;;;5002163;28;20673;-59
2021/06/06 14:55:46;;;;;;;4.95;2.70;;;;;;;;;;4999579;28;20049;-59
2021/06/06 14:58:19;;;;;;;5.45;2.72;;;;;;;;;;5006575;28;20038;-60
2021/06/06 15:00:47;;;;;;;7.70;2.90;;;;;;;;;;5001366;28;20406;-60
2021/06/06 15:03:13;;;;;;;5.55;2.72;;;;;;;;;;5000609;28;20133;-60
2021/06/06 15:05:41;;;;;;;4.63;2.65;;;;;;;;;;5001596;28;20082;-60